sensor_id;sensor_type;location;lat;lon;timestamp;P1;durP1;ratioP1;P2;durP2;ratioP2
13493;SDS011;6819;50.886;4.332;2023-04-24T00:01:19;24.55;;;10.05;;
13493;SDS011;6819;50.886;4.332;2023-04-24T00:03:45;21.08;;;9.32;;
13493;SDS011;6819;50.886;4.332;2023-04-24T00:06:11;24.23;;;9.50;;
13493;SDS011;6819;50.886;4.332;2023-04-24T00:08:37;18.90;;;9.18;;
13493;SDS011;6819;50.886;4.332;2023-04-24T00:11:03;14.75;;;9.40;;
13493;SDS011;6819;50.886;4.332;2023-04-24T00:13:29;22.88;;;9.43;;
13493;SDS011;6819;50.886;4.332;2023-04-24T00:15:56;21.90;;;9.15;;
13493;SDS011;6819;50.886;4.332;2023-04-24T00:18:22;14.98;;;9.30;;
13493;SDS011;6819;50.886;4.332;2023-04-24T00:20:48;20.02;;;9.38;;
13493;SDS011;6819;50.886;4.332;2023-04-24T00:23:14;22.85;;;9.23;;
13493;SDS011;6819;50.886;4.332;2023-04-24T00:25:40;15.57;;;9.07;;
13493;SDS011;6819;50.886;4.332;2023-04-24T00:28:06;19.08;;;9.77;;
13493;SDS011;6819;50.886;4.332;2023-04-24T00:30:32;13.15;;;9.05;;
13493;SDS011;6819;50.886;4.332;2023-04-24T00:32:58;20.75;;;9.45;;
13493;SDS011;6819;50.886;4.332;2023-04-24T00:35:24;23.67;;;10.05;;
13493;SDS011;6819;50.886;4.332;2023-04-24T00:37:50;16.02;;;9.05;;
13493;SDS011;6819;50.886;4.332;2023-04-24T00:40:16;23.60;;;9.65;;
13493;SDS011;6819;50.886;4.332;2023-04-24T00:42:43;18.08;;;9.55;;
13493;SDS011;6819;50.886;4.332;2023-04-24T00:45:10;18.45;;;9.50;;
13493;SDS011;6819;50.886;4.332;2023-04-24T00:47:36;20.92;;;10.43;;
13493;SDS011;6819;50.886;4.332;2023-04-24T00:50:05;18.45;;;9.85;;
13493;SDS011;6819;50.886;4.332;2023-04-24T00:52:32;19.90;;;9.73;;
13493;SDS011;6819;50.886;4.332;2023-04-24T00:54:58;21.60;;;11.10;;
13493;SDS011;6819;50.886;4.332;2023-04-24T00:57:24;19.92;;;9.93;;
13493;SDS011;6819;50.886;4.332;2023-04-24T00:59:51;19.52;;;10.25;;
13493;SDS011;6819;50.886;4.332;2023-04-24T01:02:17;18.02;;;9.95;;
13493;SDS011;6819;50.886;4.332;2023-04-24T01:04:43;23.92;;;9.93;;
13493;SDS011;6819;50.886;4.332;2023-04-24T01:07:09;20.55;;;9.20;;
13493;SDS011;6819;50.886;4.332;2023-04-24T01:09:42;19.65;;;10.32;;
13493;SDS011;6819;50.886;4.332;2023-04-24T01:12:08;18.00;;;10.57;;
13493;SDS011;6819;50.886;4.332;2023-04-24T01:14:35;25.55;;;11.13;;
13493;SDS011;6819;50.886;4.332;2023-04-24T01:17:01;20.95;;;10.80;;
13493;SDS011;6819;50.886;4.332;2023-04-24T01:19:27;21.58;;;10.05;;
13493;SDS011;6819;50.886;4.332;2023-04-24T01:21:53;20.33;;;10.93;;
13493;SDS011;6819;50.886;4.332;2023-04-24T01:24:21;21.05;;;10.10;;
13493;SDS011;6819;50.886;4.332;2023-04-24T01:26:47;14.77;;;9.38;;
13493;SDS011;6819;50.886;4.332;2023-04-24T01:29:13;19.52;;;9.88;;
13493;SDS011;6819;50.886;4.332;2023-04-24T01:31:40;21.20;;;10.05;;
13493;SDS011;6819;50.886;4.332;2023-04-24T01:34:06;21.50;;;11.05;;
13493;SDS011;6819;50.886;4.332;2023-04-24T01:36:33;20.25;;;11.40;;
13493;SDS011;6819;50.886;4.332;2023-04-24T01:39:01;18.40;;;9.50;;
13493;SDS011;6819;50.886;4.332;2023-04-24T01:41:28;22.75;;;9.63;;
13493;SDS011;6819;50.886;4.332;2023-04-24T01:43:54;19.52;;;9.27;;
13493;SDS011;6819;50.886;4.332;2023-04-24T01:46:20;17.20;;;9.57;;
13493;SDS011;6819;50.886;4.332;2023-04-24T01:48:46;13.40;;;8.13;;
13493;SDS011;6819;50.886;4.332;2023-04-24T01:51:12;17.63;;;8.52;;
13493;SDS011;6819;50.886;4.332;2023-04-24T01:53:38;13.60;;;7.80;;
13493;SDS011;6819;50.886;4.332;2023-04-24T01:56:04;14.25;;;7.88;;
13493;SDS011;6819;50.886;4.332;2023-04-24T01:58:30;15.75;;;7.57;;
13493;SDS011;6819;50.886;4.332;2023-04-24T02:00:57;16.20;;;8.10;;
13493;SDS011;6819;50.886;4.332;2023-04-24T02:03:24;17.20;;;8.40;;
13493;SDS011;6819;50.886;4.332;2023-04-24T02:05:50;15.00;;;7.78;;
13493;SDS011;6819;50.886;4.332;2023-04-24T02:08:16;16.52;;;9.20;;
13493;SDS011;6819;50.886;4.332;2023-04-24T02:10:43;15.82;;;8.68;;
13493;SDS011;6819;50.886;4.332;2023-04-24T02:13:09;13.75;;;8.48;;
13493;SDS011;6819;50.886;4.332;2023-04-24T02:15:35;16.10;;;8.27;;
13493;SDS011;6819;50.886;4.332;2023-04-24T02:18:01;16.02;;;8.75;;
13493;SDS011;6819;50.886;4.332;2023-04-24T02:20:27;15.70;;;8.77;;
13493;SDS011;6819;50.886;4.332;2023-04-24T02:22:53;16.10;;;9.15;;
13493;SDS011;6819;50.886;4.332;2023-04-24T02:25:20;19.30;;;9.23;;
13493;SDS011;6819;50.886;4.332;2023-04-24T02:27:46;16.50;;;8.98;;
13493;SDS011;6819;50.886;4.332;2023-04-24T02:30:12;13.23;;;8.45;;
13493;SDS011;6819;50.886;4.332;2023-04-24T02:32:38;16.80;;;8.55;;
13493;SDS011;6819;50.886;4.332;2023-04-24T02:35:04;18.40;;;8.35;;
13493;SDS011;6819;50.886;4.332;2023-04-24T02:37:30;15.68;;;8.30;;
13493;SDS011;6819;50.886;4.332;2023-04-24T02:39:56;12.30;;;7.70;;
13493;SDS011;6819;50.886;4.332;2023-04-24T02:42:23;17.08;;;8.73;;
13493;SDS011;6819;50.886;4.332;2023-04-24T02:44:49;18.67;;;8.35;;
13493;SDS011;6819;50.886;4.332;2023-04-24T02:47:16;23.02;;;8.27;;
13493;SDS011;6819;50.886;4.332;2023-04-24T02:49:42;15.60;;;8.48;;
13493;SDS011;6819;50.886;4.332;2023-04-24T02:52:08;20.27;;;8.80;;
13493;SDS011;6819;50.886;4.332;2023-04-24T02:54:34;17.58;;;8.45;;
13493;SDS011;6819;50.886;4.332;2023-04-24T02:57:00;17.45;;;9.18;;
13493;SDS011;6819;50.886;4.332;2023-04-24T02:59:26;15.63;;;8.52;;
13493;SDS011;6819;50.886;4.332;2023-04-24T03:01:53;15.32;;;8.10;;
13493;SDS011;6819;50.886;4.332;2023-04-24T03:04:20;18.73;;;9.10;;
13493;SDS011;6819;50.886;4.332;2023-04-24T03:06:47;18.85;;;9.68;;
13493;SDS011;6819;50.886;4.332;2023-04-24T03:09:13;18.20;;;8.18;;
13493;SDS011;6819;50.886;4.332;2023-04-24T03:11:39;15.98;;;8.20;;
13493;SDS011;6819;50.886;4.332;2023-04-24T03:14:05;15.65;;;8.20;;
13493;SDS011;6819;50.886;4.332;2023-04-24T03:16:31;16.00;;;8.40;;
13493;SDS011;6819;50.886;4.332;2023-04-24T03:18:58;14.18;;;7.65;;
13493;SDS011;6819;50.886;4.332;2023-04-24T03:21:24;11.13;;;7.15;;
13493;SDS011;6819;50.886;4.332;2023-04-24T03:23:51;15.63;;;7.95;;
13493;SDS011;6819;50.886;4.332;2023-04-24T03:26:17;15.00;;;6.90;;
13493;SDS011;6819;50.886;4.332;2023-04-24T03:28:43;13.45;;;7.75;;
13493;SDS011;6819;50.886;4.332;2023-04-24T03:31:09;12.40;;;7.22;;
13493;SDS011;6819;50.886;4.332;2023-04-24T03:33:35;13.65;;;7.22;;
13493;SDS011;6819;50.886;4.332;2023-04-24T03:36:01;12.80;;;7.05;;
13493;SDS011;6819;50.886;4.332;2023-04-24T03:38:28;12.57;;;6.93;;
13493;SDS011;6819;50.886;4.332;2023-04-24T03:40:54;15.70;;;7.07;;
13493;SDS011;6819;50.886;4.332;2023-04-24T03:43:20;14.85;;;6.57;;
13493;SDS011;6819;50.886;4.332;2023-04-24T03:45:46;10.50;;;6.22;;
13493;SDS011;6819;50.886;4.332;2023-04-24T03:48:12;9.93;;;6.18;;
13493;SDS011;6819;50.886;4.332;2023-04-24T03:50:38;12.82;;;6.25;;
13493;SDS011;6819;50.886;4.332;2023-04-24T03:53:04;7.97;;;5.78;;
13493;SDS011;6819;50.886;4.332;2023-04-24T03:55:30;10.43;;;5.82;;
13493;SDS011;6819;50.886;4.332;2023-04-24T03:57:56;11.55;;;6.38;;
13493;SDS011;6819;50.886;4.332;2023-04-24T04:00:22;7.60;;;5.43;;
13493;SDS011;6819;50.886;4.332;2023-04-24T04:02:48;9.15;;;5.82;;
13493;SDS011;6819;50.886;4.332;2023-04-24T04:05:14;10.15;;;5.80;;
13493;SDS011;6819;50.886;4.332;2023-04-24T04:07:40;9.07;;;5.53;;
13493;SDS011;6819;50.886;4.332;2023-04-24T04:10:06;15.82;;;5.28;;
13493;SDS011;6819;50.886;4.332;2023-04-24T04:12:33;10.23;;;5.07;;
13493;SDS011;6819;50.886;4.332;2023-04-24T04:14:59;7.60;;;4.75;;
13493;SDS011;6819;50.886;4.332;2023-04-24T04:17:25;9.10;;;4.60;;
13493;SDS011;6819;50.886;4.332;2023-04-24T04:19:51;6.60;;;5.00;;
13493;SDS011;6819;50.886;4.332;2023-04-24T04:22:17;7.78;;;4.95;;
13493;SDS011;6819;50.886;4.332;2023-04-24T04:24:43;10.20;;;5.40;;
13493;SDS011;6819;50.886;4.332;2023-04-24T04:27:09;9.75;;;5.20;;
13493;SDS011;6819;50.886;4.332;2023-04-24T04:29:36;8.52;;;4.75;;
13493;SDS011;6819;50.886;4.332;2023-04-24T04:32:02;8.50;;;4.95;;
13493;SDS011;6819;50.886;4.332;2023-04-24T04:34:28;9.25;;;5.45;;
13493;SDS011;6819;50.886;4.332;2023-04-24T04:36:54;10.95;;;5.55;;
13493;SDS011;6819;50.886;4.332;2023-04-24T04:39:20;8.57;;;5.10;;
13493;SDS011;6819;50.886;4.332;2023-04-24T04:41:46;9.65;;;5.07;;
13493;SDS011;6819;50.886;4.332;2023-04-24T04:44:14;9.05;;;5.35;;
13493;SDS011;6819;50.886;4.332;2023-04-24T04:46:40;9.07;;;5.40;;
13493;SDS011;6819;50.886;4.332;2023-04-24T04:49:06;9.75;;;5.53;;
13493;SDS011;6819;50.886;4.332;2023-04-24T04:51:33;11.70;;;5.60;;
13493;SDS011;6819;50.886;4.332;2023-04-24T04:53:59;12.27;;;5.80;;
13493;SDS011;6819;50.886;4.332;2023-04-24T04:56:26;11.38;;;6.53;;
13493;SDS011;6819;50.886;4.332;2023-04-24T04:58:52;17.65;;;6.28;;
13493;SDS011;6819;50.886;4.332;2023-04-24T05:01:18;14.45;;;7.18;;
13493;SDS011;6819;50.886;4.332;2023-04-24T05:03:44;13.93;;;7.97;;
13493;SDS011;6819;50.886;4.332;2023-04-24T05:06:10;15.00;;;6.75;;
13493;SDS011;6819;50.886;4.332;2023-04-24T05:08:36;12.38;;;7.18;;
13493;SDS011;6819;50.886;4.332;2023-04-24T05:11:02;15.02;;;7.55;;
13493;SDS011;6819;50.886;4.332;2023-04-24T05:13:28;16.25;;;8.00;;
13493;SDS011;6819;50.886;4.332;2023-04-24T05:15:54;14.85;;;8.50;;
13493;SDS011;6819;50.886;4.332;2023-04-24T05:18:20;15.57;;;8.23;;
13493;SDS011;6819;50.886;4.332;2023-04-24T05:20:46;14.10;;;8.10;;
13493;SDS011;6819;50.886;4.332;2023-04-24T05:23:12;13.75;;;8.68;;
13493;SDS011;6819;50.886;4.332;2023-04-24T05:25:38;15.00;;;7.63;;
13493;SDS011;6819;50.886;4.332;2023-04-24T05:28:05;16.60;;;7.68;;
13493;SDS011;6819;50.886;4.332;2023-04-24T05:30:31;16.13;;;7.88;;
13493;SDS011;6819;50.886;4.332;2023-04-24T05:32:57;19.92;;;8.60;;
13493;SDS011;6819;50.886;4.332;2023-04-24T05:35:23;16.55;;;8.65;;
13493;SDS011;6819;50.886;4.332;2023-04-24T05:37:50;15.73;;;7.68;;
13493;SDS011;6819;50.886;4.332;2023-04-24T05:40:16;12.95;;;7.55;;
13493;SDS011;6819;50.886;4.332;2023-04-24T05:42:42;15.63;;;8.43;;
13493;SDS011;6819;50.886;4.332;2023-04-24T05:45:08;15.15;;;7.97;;
13493;SDS011;6819;50.886;4.332;2023-04-24T05:47:36;15.50;;;8.38;;
13493;SDS011;6819;50.886;4.332;2023-04-24T05:50:02;17.17;;;8.48;;
13493;SDS011;6819;50.886;4.332;2023-04-24T05:52:28;20.48;;;8.95;;
13493;SDS011;6819;50.886;4.332;2023-04-24T05:54:54;23.65;;;10.02;;
13493;SDS011;6819;50.886;4.332;2023-04-24T05:57:21;19.58;;;9.30;;
13493;SDS011;6819;50.886;4.332;2023-04-24T05:59:47;17.88;;;8.20;;
13493;SDS011;6819;50.886;4.332;2023-04-24T06:02:13;17.30;;;9.57;;
13493;SDS011;6819;50.886;4.332;2023-04-24T06:04:39;21.42;;;9.85;;
13493;SDS011;6819;50.886;4.332;2023-04-24T06:07:06;18.15;;;9.63;;
13493;SDS011;6819;50.886;4.332;2023-04-24T06:09:32;18.23;;;9.10;;
13493;SDS011;6819;50.886;4.332;2023-04-24T06:11:58;16.40;;;9.57;;
13493;SDS011;6819;50.886;4.332;2023-04-24T06:14:25;16.45;;;8.85;;
13493;SDS011;6819;50.886;4.332;2023-04-24T06:16:51;22.88;;;9.10;;
13493;SDS011;6819;50.886;4.332;2023-04-24T06:19:17;17.58;;;9.15;;
13493;SDS011;6819;50.886;4.332;2023-04-24T06:21:43;21.00;;;9.77;;
13493;SDS011;6819;50.886;4.332;2023-04-24T06:24:09;18.30;;;9.35;;
13493;SDS011;6819;50.886;4.332;2023-04-24T06:26:35;18.20;;;9.57;;
13493;SDS011;6819;50.886;4.332;2023-04-24T06:29:01;16.63;;;9.40;;
13493;SDS011;6819;50.886;4.332;2023-04-24T06:31:27;17.80;;;9.27;;
13493;SDS011;6819;50.886;4.332;2023-04-24T06:33:53;27.25;;;9.85;;
13493;SDS011;6819;50.886;4.332;2023-04-24T06:36:19;22.90;;;9.60;;
13493;SDS011;6819;50.886;4.332;2023-04-24T06:38:45;20.85;;;9.85;;
13493;SDS011;6819;50.886;4.332;2023-04-24T06:41:11;19.25;;;10.52;;
13493;SDS011;6819;50.886;4.332;2023-04-24T06:43:38;22.73;;;10.88;;
13493;SDS011;6819;50.886;4.332;2023-04-24T06:46:04;19.35;;;11.07;;
13493;SDS011;6819;50.886;4.332;2023-04-24T06:48:30;25.00;;;11.38;;
13493;SDS011;6819;50.886;4.332;2023-04-24T06:50:56;24.17;;;11.10;;
13493;SDS011;6819;50.886;4.332;2023-04-24T06:53:22;20.23;;;10.60;;
13493;SDS011;6819;50.886;4.332;2023-04-24T06:55:48;27.77;;;10.95;;
13493;SDS011;6819;50.886;4.332;2023-04-24T06:58:14;25.35;;;11.35;;
13493;SDS011;6819;50.886;4.332;2023-04-24T07:00:40;22.10;;;10.95;;
13493;SDS011;6819;50.886;4.332;2023-04-24T07:03:07;24.38;;;11.38;;
13493;SDS011;6819;50.886;4.332;2023-04-24T07:05:33;26.55;;;12.13;;
13493;SDS011;6819;50.886;4.332;2023-04-24T07:08:00;22.85;;;11.18;;
13493;SDS011;6819;50.886;4.332;2023-04-24T07:10:26;29.85;;;11.70;;
13493;SDS011;6819;50.886;4.332;2023-04-24T07:12:54;22.35;;;11.85;;
13493;SDS011;6819;50.886;4.332;2023-04-24T07:15:21;23.55;;;11.05;;
13493;SDS011;6819;50.886;4.332;2023-04-24T07:17:47;29.60;;;11.73;;
13493;SDS011;6819;50.886;4.332;2023-04-24T07:20:13;23.48;;;11.07;;
13493;SDS011;6819;50.886;4.332;2023-04-24T07:22:39;20.20;;;9.95;;
13493;SDS011;6819;50.886;4.332;2023-04-24T07:25:06;22.48;;;9.45;;
13493;SDS011;6819;50.886;4.332;2023-04-24T07:27:33;24.90;;;9.93;;
13493;SDS011;6819;50.886;4.332;2023-04-24T07:29:59;16.30;;;9.80;;
13493;SDS011;6819;50.886;4.332;2023-04-24T07:32:26;20.48;;;9.82;;
13493;SDS011;6819;50.886;4.332;2023-04-24T07:34:52;17.45;;;9.18;;
13493;SDS011;6819;50.886;4.332;2023-04-24T07:37:18;17.25;;;8.52;;
13493;SDS011;6819;50.886;4.332;2023-04-24T07:39:44;17.88;;;9.02;;
13493;SDS011;6819;50.886;4.332;2023-04-24T07:42:10;17.35;;;7.13;;
13493;SDS011;6819;50.886;4.332;2023-04-24T07:44:36;13.25;;;7.75;;
13493;SDS011;6819;50.886;4.332;2023-04-24T07:47:02;14.18;;;6.85;;
13493;SDS011;6819;50.886;4.332;2023-04-24T07:49:28;18.30;;;7.78;;
13493;SDS011;6819;50.886;4.332;2023-04-24T07:51:54;12.93;;;7.03;;
13493;SDS011;6819;50.886;4.332;2023-04-24T07:54:20;17.50;;;8.32;;
13493;SDS011;6819;50.886;4.332;2023-04-24T07:56:46;18.40;;;8.27;;
13493;SDS011;6819;50.886;4.332;2023-04-24T07:59:12;14.43;;;7.97;;
13493;SDS011;6819;50.886;4.332;2023-04-24T08:01:38;18.60;;;8.75;;
13493;SDS011;6819;50.886;4.332;2023-04-24T08:04:04;17.10;;;8.23;;
13493;SDS011;6819;50.886;4.332;2023-04-24T08:06:30;23.27;;;8.50;;
13493;SDS011;6819;50.886;4.332;2023-04-24T08:08:57;13.38;;;8.00;;
13493;SDS011;6819;50.886;4.332;2023-04-24T08:11:23;11.98;;;6.45;;
13493;SDS011;6819;50.886;4.332;2023-04-24T08:13:49;19.85;;;7.80;;
13493;SDS011;6819;50.886;4.332;2023-04-24T08:16:16;18.38;;;8.10;;
13493;SDS011;6819;50.886;4.332;2023-04-24T08:18:42;17.73;;;6.82;;
13493;SDS011;6819;50.886;4.332;2023-04-24T08:21:08;16.27;;;6.25;;
13493;SDS011;6819;50.886;4.332;2023-04-24T08:23:34;11.48;;;6.50;;
13493;SDS011;6819;50.886;4.332;2023-04-24T08:26:00;14.05;;;5.70;;
13493;SDS011;6819;50.886;4.332;2023-04-24T08:28:26;18.05;;;6.35;;
13493;SDS011;6819;50.886;4.332;2023-04-24T08:30:52;12.27;;;6.10;;
13493;SDS011;6819;50.886;4.332;2023-04-24T08:33:22;18.08;;;6.63;;
13493;SDS011;6819;50.886;4.332;2023-04-24T08:35:48;16.48;;;5.93;;
13493;SDS011;6819;50.886;4.332;2023-04-24T08:38:15;15.98;;;5.65;;
13493;SDS011;6819;50.886;4.332;2023-04-24T08:40:41;12.85;;;5.50;;
13493;SDS011;6819;50.886;4.332;2023-04-24T08:43:08;19.77;;;5.15;;
13493;SDS011;6819;50.886;4.332;2023-04-24T08:45:35;12.68;;;5.72;;
13493;SDS011;6819;50.886;4.332;2023-04-24T08:48:01;14.05;;;5.10;;
13493;SDS011;6819;50.886;4.332;2023-04-24T08:50:27;15.43;;;5.13;;
13493;SDS011;6819;50.886;4.332;2023-04-24T08:52:54;14.77;;;5.10;;
13493;SDS011;6819;50.886;4.332;2023-04-24T08:55:21;12.02;;;4.65;;
13493;SDS011;6819;50.886;4.332;2023-04-24T08:57:50;14.35;;;5.05;;
13493;SDS011;6819;50.886;4.332;2023-04-24T09:00:17;11.82;;;4.97;;
13493;SDS011;6819;50.886;4.332;2023-04-24T09:02:43;15.45;;;4.57;;
13493;SDS011;6819;50.886;4.332;2023-04-24T09:05:10;11.15;;;4.60;;
13493;SDS011;6819;50.886;4.332;2023-04-24T09:07:36;11.95;;;4.60;;
13493;SDS011;6819;50.886;4.332;2023-04-24T09:10:05;10.75;;;4.57;;
13493;SDS011;6819;50.886;4.332;2023-04-24T09:12:32;9.73;;;3.75;;
13493;SDS011;6819;50.886;4.332;2023-04-24T09:15:00;9.93;;;4.30;;
13493;SDS011;6819;50.886;4.332;2023-04-24T09:17:26;9.02;;;3.90;;
13493;SDS011;6819;50.886;4.332;2023-04-24T09:19:53;9.80;;;3.78;;
13493;SDS011;6819;50.886;4.332;2023-04-24T09:22:19;12.32;;;3.83;;
13493;SDS011;6819;50.886;4.332;2023-04-24T09:24:45;7.78;;;3.97;;
13493;SDS011;6819;50.886;4.332;2023-04-24T09:27:12;10.05;;;3.78;;
13493;SDS011;6819;50.886;4.332;2023-04-24T09:29:38;7.32;;;3.25;;
13493;SDS011;6819;50.886;4.332;2023-04-24T09:32:17;9.90;;;3.42;;
13493;SDS011;6819;50.886;4.332;2023-04-24T09:34:46;11.02;;;3.25;;
13493;SDS011;6819;50.886;4.332;2023-04-24T09:37:25;10.95;;;4.00;;
13493;SDS011;6819;50.886;4.332;2023-04-24T09:42:37;12.93;;;4.72;;
13493;SDS011;6819;50.886;4.332;2023-04-24T09:45:04;7.18;;;3.15;;
13493;SDS011;6819;50.886;4.332;2023-04-24T09:47:37;12.13;;;4.20;;
13493;SDS011;6819;50.886;4.332;2023-04-24T09:50:12;8.10;;;3.80;;
13493;SDS011;6819;50.886;4.332;2023-04-24T09:52:39;8.55;;;3.50;;
13493;SDS011;6819;50.886;4.332;2023-04-24T09:55:16;9.18;;;3.47;;
13493;SDS011;6819;50.886;4.332;2023-04-24T09:57:49;7.05;;;2.88;;
13493;SDS011;6819;50.886;4.332;2023-04-24T10:00:25;9.98;;;3.03;;
13493;SDS011;6819;50.886;4.332;2023-04-24T10:02:55;10.35;;;4.20;;
13493;SDS011;6819;50.886;4.332;2023-04-24T10:05:25;6.72;;;2.72;;
13493;SDS011;6819;50.886;4.332;2023-04-24T10:07:55;9.00;;;3.20;;
13493;SDS011;6819;50.886;4.332;2023-04-24T10:10:22;5.88;;;2.80;;
13493;SDS011;6819;50.886;4.332;2023-04-24T10:12:48;8.77;;;3.80;;
13493;SDS011;6819;50.886;4.332;2023-04-24T10:15:14;8.52;;;3.60;;
13493;SDS011;6819;50.886;4.332;2023-04-24T10:17:45;6.05;;;2.90;;
13493;SDS011;6819;50.886;4.332;2023-04-24T10:20:17;6.78;;;2.97;;
13493;SDS011;6819;50.886;4.332;2023-04-24T10:22:43;6.97;;;3.20;;
13493;SDS011;6819;50.886;4.332;2023-04-24T10:25:11;4.53;;;3.15;;
13493;SDS011;6819;50.886;4.332;2023-04-24T10:27:37;7.70;;;3.58;;
13493;SDS011;6819;50.886;4.332;2023-04-24T10:30:04;8.38;;;3.25;;
13493;SDS011;6819;50.886;4.332;2023-04-24T10:32:31;6.70;;;3.25;;
13493;SDS011;6819;50.886;4.332;2023-04-24T10:34:57;6.18;;;3.22;;
13493;SDS011;6819;50.886;4.332;2023-04-24T10:37:23;6.45;;;3.45;;
13493;SDS011;6819;50.886;4.332;2023-04-24T10:39:50;8.88;;;3.13;;
13493;SDS011;6819;50.886;4.332;2023-04-24T10:42:19;6.47;;;3.20;;
13493;SDS011;6819;50.886;4.332;2023-04-24T10:44:47;6.93;;;3.38;;
13493;SDS011;6819;50.886;4.332;2023-04-24T10:47:14;6.95;;;3.42;;
13493;SDS011;6819;50.886;4.332;2023-04-24T10:49:40;6.80;;;3.28;;
13493;SDS011;6819;50.886;4.332;2023-04-24T10:52:06;8.77;;;3.28;;
13493;SDS011;6819;50.886;4.332;2023-04-24T10:59:48;9.00;;;4.03;;
13493;SDS011;6819;50.886;4.332;2023-04-24T11:02:16;9.07;;;3.42;;
13493;SDS011;6819;50.886;4.332;2023-04-24T11:04:42;9.63;;;3.95;;
13493;SDS011;6819;50.886;4.332;2023-04-24T11:07:08;7.57;;;3.08;;
13493;SDS011;6819;50.886;4.332;2023-04-24T11:09:35;9.15;;;3.60;;
13493;SDS011;6819;50.886;4.332;2023-04-24T11:12:05;14.88;;;3.90;;
13493;SDS011;6819;50.886;4.332;2023-04-24T11:20:00;9.50;;;3.78;;
13493;SDS011;6819;50.886;4.332;2023-04-24T11:22:26;10.00;;;3.42;;
13493;SDS011;6819;50.886;4.332;2023-04-24T11:24:54;6.30;;;3.80;;
13493;SDS011;6819;50.886;4.332;2023-04-24T11:27:20;5.85;;;3.47;;
13493;SDS011;6819;50.886;4.332;2023-04-24T11:34:49;9.45;;;3.67;;
13493;SDS011;6819;50.886;4.332;2023-04-24T11:37:15;7.38;;;3.97;;
13493;SDS011;6819;50.886;4.332;2023-04-24T11:39:42;7.72;;;3.50;;
13493;SDS011;6819;50.886;4.332;2023-04-24T11:42:08;5.72;;;3.38;;
13493;SDS011;6819;50.886;4.332;2023-04-24T11:44:35;8.45;;;4.40;;
13493;SDS011;6819;50.886;4.332;2023-04-24T11:47:05;7.78;;;3.90;;
13493;SDS011;6819;50.886;4.332;2023-04-24T11:49:37;8.07;;;4.20;;
13493;SDS011;6819;50.886;4.332;2023-04-24T11:52:04;11.88;;;4.55;;
13493;SDS011;6819;50.886;4.332;2023-04-24T11:54:31;7.82;;;3.78;;
13493;SDS011;6819;50.886;4.332;2023-04-24T11:56:57;8.90;;;3.80;;
13493;SDS011;6819;50.886;4.332;2023-04-24T11:59:23;5.68;;;3.80;;
13493;SDS011;6819;50.886;4.332;2023-04-24T12:01:50;11.32;;;4.15;;
13493;SDS011;6819;50.886;4.332;2023-04-24T12:04:16;5.97;;;3.42;;
13493;SDS011;6819;50.886;4.332;2023-04-24T12:09:27;8.45;;;3.80;;
13493;SDS011;6819;50.886;4.332;2023-04-24T12:11:56;6.57;;;3.78;;
13493;SDS011;6819;50.886;4.332;2023-04-24T12:14:22;7.75;;;3.80;;
13493;SDS011;6819;50.886;4.332;2023-04-24T12:16:49;7.30;;;3.75;;
13493;SDS011;6819;50.886;4.332;2023-04-24T12:19:20;6.32;;;3.58;;
13493;SDS011;6819;50.886;4.332;2023-04-24T12:22:02;5.78;;;3.88;;
13493;SDS011;6819;50.886;4.332;2023-04-24T12:24:30;7.43;;;3.78;;
13493;SDS011;6819;50.886;4.332;2023-04-24T12:26:56;6.60;;;3.35;;
13493;SDS011;6819;50.886;4.332;2023-04-24T12:29:23;6.18;;;3.50;;
13493;SDS011;6819;50.886;4.332;2023-04-24T12:31:49;7.22;;;3.05;;
13493;SDS011;6819;50.886;4.332;2023-04-24T12:34:21;6.28;;;3.47;;
13493;SDS011;6819;50.886;4.332;2023-04-24T12:36:48;9.00;;;3.88;;
13493;SDS011;6819;50.886;4.332;2023-04-24T12:39:18;6.50;;;3.88;;
13493;SDS011;6819;50.886;4.332;2023-04-24T12:41:54;6.05;;;3.47;;
13493;SDS011;6819;50.886;4.332;2023-04-24T12:44:28;9.45;;;4.05;;
13493;SDS011;6819;50.886;4.332;2023-04-24T12:46:54;7.82;;;3.40;;
13493;SDS011;6819;50.886;4.332;2023-04-24T12:49:20;6.97;;;3.25;;
13493;SDS011;6819;50.886;4.332;2023-04-24T12:51:46;6.85;;;3.50;;
13493;SDS011;6819;50.886;4.332;2023-04-24T12:54:12;5.88;;;3.17;;
13493;SDS011;6819;50.886;4.332;2023-04-24T12:56:38;6.25;;;3.08;;
13493;SDS011;6819;50.886;4.332;2023-04-24T12:59:04;4.38;;;3.05;;
13493;SDS011;6819;50.886;4.332;2023-04-24T13:01:30;8.93;;;3.38;;
13493;SDS011;6819;50.886;4.332;2023-04-24T13:03:56;8.25;;;2.70;;
13493;SDS011;6819;50.886;4.332;2023-04-24T13:06:22;5.65;;;2.88;;
13493;SDS011;6819;50.886;4.332;2023-04-24T13:08:48;6.32;;;3.08;;
13493;SDS011;6819;50.886;4.332;2023-04-24T13:11:16;4.82;;;2.40;;
13493;SDS011;6819;50.886;4.332;2023-04-24T13:13:42;9.25;;;2.70;;
13493;SDS011;6819;50.886;4.332;2023-04-24T13:16:08;3.95;;;2.65;;
13493;SDS011;6819;50.886;4.332;2023-04-24T13:18:35;5.63;;;2.72;;
13493;SDS011;6819;50.886;4.332;2023-04-24T13:21:01;9.38;;;2.65;;
13493;SDS011;6819;50.886;4.332;2023-04-24T13:23:27;3.83;;;2.28;;
13493;SDS011;6819;50.886;4.332;2023-04-24T13:25:54;4.70;;;2.53;;
13493;SDS011;6819;50.886;4.332;2023-04-24T13:28:23;5.60;;;2.47;;
13493;SDS011;6819;50.886;4.332;2023-04-24T13:30:50;6.25;;;2.22;;
13493;SDS011;6819;50.886;4.332;2023-04-24T13:33:16;7.95;;;2.72;;
13493;SDS011;6819;50.886;4.332;2023-04-24T13:35:42;4.85;;;2.25;;
13493;SDS011;6819;50.886;4.332;2023-04-24T13:38:08;3.35;;;1.98;;
13493;SDS011;6819;50.886;4.332;2023-04-24T13:40:34;6.57;;;2.33;;
13493;SDS011;6819;50.886;4.332;2023-04-24T13:43:00;4.35;;;2.47;;
13493;SDS011;6819;50.886;4.332;2023-04-24T13:45:27;5.60;;;1.90;;
13493;SDS011;6819;50.886;4.332;2023-04-24T13:47:53;3.67;;;2.03;;
13493;SDS011;6819;50.886;4.332;2023-04-24T13:50:19;5.03;;;2.08;;
13493;SDS011;6819;50.886;4.332;2023-04-24T13:52:45;4.05;;;2.20;;
13493;SDS011;6819;50.886;4.332;2023-04-24T13:55:11;4.32;;;1.75;;
13493;SDS011;6819;50.886;4.332;2023-04-24T13:57:37;5.25;;;2.10;;
13493;SDS011;6819;50.886;4.332;2023-04-24T14:00:03;6.03;;;2.03;;
13493;SDS011;6819;50.886;4.332;2023-04-24T14:02:35;3.60;;;1.73;;
13493;SDS011;6819;50.886;4.332;2023-04-24T14:05:01;5.80;;;1.83;;
13493;SDS011;6819;50.886;4.332;2023-04-24T14:07:28;4.85;;;2.00;;
13493;SDS011;6819;50.886;4.332;2023-04-24T14:09:55;3.42;;;1.80;;
13493;SDS011;6819;50.886;4.332;2023-04-24T14:12:21;7.97;;;1.95;;
13493;SDS011;6819;50.886;4.332;2023-04-24T14:14:47;4.57;;;2.10;;
13493;SDS011;6819;50.886;4.332;2023-04-24T14:17:14;5.97;;;2.40;;
13493;SDS011;6819;50.886;4.332;2023-04-24T14:19:40;4.80;;;1.70;;
13493;SDS011;6819;50.886;4.332;2023-04-24T14:22:06;5.15;;;2.33;;
13493;SDS011;6819;50.886;4.332;2023-04-24T14:24:32;3.60;;;1.70;;
13493;SDS011;6819;50.886;4.332;2023-04-24T14:26:58;6.28;;;2.08;;
13493;SDS011;6819;50.886;4.332;2023-04-24T14:29:25;3.63;;;2.05;;
13493;SDS011;6819;50.886;4.332;2023-04-24T14:31:51;4.68;;;2.00;;
13493;SDS011;6819;50.886;4.332;2023-04-24T14:34:17;2.75;;;1.95;;
13493;SDS011;6819;50.886;4.332;2023-04-24T14:36:43;4.85;;;1.70;;
13493;SDS011;6819;50.886;4.332;2023-04-24T14:39:09;3.25;;;1.77;;
13493;SDS011;6819;50.886;4.332;2023-04-24T14:41:35;6.13;;;2.00;;
13493;SDS011;6819;50.886;4.332;2023-04-24T14:44:04;4.38;;;1.80;;
13493;SDS011;6819;50.886;4.332;2023-04-24T14:46:30;3.30;;;1.80;;
13493;SDS011;6819;50.886;4.332;2023-04-24T14:48:56;8.25;;;2.00;;
13493;SDS011;6819;50.886;4.332;2023-04-24T14:51:23;5.70;;;2.08;;
13493;SDS011;6819;50.886;4.332;2023-04-24T14:53:49;3.50;;;1.80;;
13493;SDS011;6819;50.886;4.332;2023-04-24T14:56:15;3.65;;;1.83;;
13493;SDS011;6819;50.886;4.332;2023-04-24T14:58:41;4.45;;;1.73;;
13493;SDS011;6819;50.886;4.332;2023-04-24T15:01:07;3.95;;;1.88;;
13493;SDS011;6819;50.886;4.332;2023-04-24T15:03:33;5.00;;;1.90;;
13493;SDS011;6819;50.886;4.332;2023-04-24T15:05:59;3.72;;;1.50;;
13493;SDS011;6819;50.886;4.332;2023-04-24T15:08:26;4.22;;;1.60;;
13493;SDS011;6819;50.886;4.332;2023-04-24T15:10:52;4.38;;;1.60;;